Benton, KY

3:20 PM CDT on May 25, 2015 (GMT -0500)
Metropolis | | Change Station
CLOSE
Current Station
Airport
Location: Metropolis,
Elevation: 384 ft
Nearby Weather Stations

Elev 384 ft 37.18 °N, 88.75 °W | Updated 5 minutes ago

Overcast
Overcast
74 °F
Feels Like 74 °F
N
6
Wind Variable Wind from South

Today
High -- | Low -- °F
--% Chance of Precip.
Yesterday
High -- | Low -- °F
Precip. -- in
5:38 AM 8:02 PM
Waxing Crescent, 51% visible
Pressure 30.07 in
Visibility 10.0 miles
Clouds Scattered Clouds 1800 ft
Scattered Clouds 2600 ft
Overcast 3500 ft
Dew Point 69 °F
Humidity 84%
Rainfall 0.46 in
Snow Depth Not available.
UV 3 out of 12
Pollen 1.90 out of 12
Air Quality Not available.
Flu Activity Sporadic
METAR KM30 252015Z AUTO 18005KT 10SM SCT018 SCT026 OVC035 23/21 A3007 RMK AO2 T02340205

More Conditions Fewer Conditions

Pressure 30.07 in
Visibility 10.0 miles
Clouds Scattered Clouds 1800 ft
Scattered Clouds 2600 ft
Overcast 3500 ft
Dew Point 69 °F
Humidity 84%
Rainfall 0.46 in
Snow Depth Not available.
UV 3 out of 12
Pollen 1.90 out of 12
Air Quality Not available.
Flu Activity Sporadic
METAR KM30 252015Z AUTO 18005KT 10SM SCT018 SCT026 OVC035 23/21 A3007 RMK AO2 T02340205

More Conditions Fewer Conditions

10-Day Weather Forecast

Almanac

Astronomy

May. 25, 2015 Rise Set
Actual Time
Civil Twilight
Nautical Twilight
Astronomical Twilight
Moon
Length of Visible Light
Length of Day
Tomorrow will be .
, % of the Moon is Illuminated

Today's Extremes

State Highs State Lows

Community

WunderPhotos

Upload Photos

1,824,119 photos uploaded!

WunderBlogs® & News

Nearby

Air Quality

  Air Quality AQ Index Pollutant
Not available.

Snow Depth

Station Depth Elevation

Earthquake Activity

City Distance Mag. Time & Date
Minimum magnitude displayed is 2.5.

Coastal Water Temperatures

Place Temperature

Stations

Nearby Weather Stations

Station Location Temp. Windchill Dew Point Humidity Wind Precip. Elev Updated Type